Time;durP1;ratioP1;P1;durP2;ratioP2;P2;SDS_P1;SDS_P2;PMS_P1;PMS_P2;Temp;Humidity;BMP_temperature;BMP_pressure;BME280_temperature;BME280_humidity;BME280_pressure;Samples;Min_cycle;Max_cycle;Signal;HPM_P1;HPM_P2
2023/06/09 00:01:49;;;;;;;;;;;;;;;21.11;49.94;100343.69;4983721;28;6780;-74
2023/06/09 00:04:15;;;;;;;;;;;;;;;21.05;50.04;100341.03;4985282;28;6868;-74
2023/06/09 00:06:43;;;;;;;;;;;;;;;20.98;49.93;100339.28;4979284;28;7225;-73
2023/06/09 00:09:09;;;;;;;;;;;;;;;20.91;50.21;100336.66;4992256;28;8592;-74
2023/06/09 00:11:35;;;;;;;;;;;;;;;20.88;50.47;100340.97;4989961;28;6779;-73
2023/06/09 00:14:01;;;;;;;;;;;;;;;20.86;50.22;100335.78;4954946;28;7513;-73
2023/06/09 00:16:28;;;;;;;;;;;;;;;20.83;50.26;100333.13;4957151;28;6772;-73
2023/06/09 00:18:57;;;;;;;;;;;;;;;20.80;50.34;100328.75;4953518;28;6867;-73
2023/06/09 00:21:25;;;;;;;;;;;;;;;20.79;50.53;100320.94;4958129;28;6812;-73
2023/06/09 00:23:52;;;;;;;;;;;;;;;20.79;50.87;100323.56;4974146;28;7033;-74
2023/06/09 00:26:18;;;;;;;;;;;;;;;20.79;50.91;100320.94;4957909;28;6788;-74
2023/06/09 00:28:44;;;;;;;;;;;;;;;20.80;50.68;100333.09;4975904;28;7044;-73
2023/06/09 00:31:10;;;;;;;;;;;;;;;20.80;50.69;100330.50;4974919;28;6988;-73
2023/06/09 00:33:36;;;;;;;;;;;;;;;20.78;50.94;100332.22;4960331;28;6951;-72
2023/06/09 00:36:02;;;;;;;;;;;;;;;20.77;50.60;100331.34;4994791;28;6995;-74
2023/06/09 00:38:28;;;;;;;;;;;;;;;20.74;50.86;100323.53;4989004;28;6927;-75
2023/06/09 00:40:53;;;;;;;;;;;;;;;20.72;51.29;100321.78;4964476;28;6760;-76
2023/06/09 00:43:19;;;;;;;;;;;;;;;20.70;50.97;100320.91;4990061;28;8336;-75
2023/06/09 00:45:45;;;;;;;;;;;;;;;20.66;51.29;100310.44;4964920;28;7011;-76
2023/06/09 00:48:11;;;;;;;;;;;;;;;20.66;51.00;100317.41;4945112;28;9545;-75
2023/06/09 00:50:40;;;;;;;;;;;;;;;20.63;51.18;100310.44;4957962;28;6816;-75
2023/06/09 00:53:09;;;;;;;;;;;;;;;20.61;51.18;100312.19;4962078;28;6776;-74
2023/06/09 00:55:40;;;;;;;;;;;;;;;20.59;51.17;100307.81;4954913;28;6848;-73
2023/06/09 00:58:08;;;;;;;;;;;;;;;20.56;51.47;100313.03;4955867;28;10139;-74
2023/06/09 01:00:35;;;;;;;;;;;;;;;20.51;51.48;100300.84;4986871;28;6808;-75
2023/06/09 01:03:02;;;;;;;;;;;;;;;20.51;51.59;100307.78;4992821;28;7097;-75
2023/06/09 01:05:38;;;;;;;;;;;;;;;20.48;51.90;100306.03;4947938;28;6898;-74
2023/06/09 01:08:19;;;;;;;;;;;;;;;20.46;51.88;100299.94;4986785;28;7241;-75
2023/06/09 01:11:00;;;;;;;;;;;;;;;20.47;51.99;100300.81;4961746;28;6963;-75
2023/06/09 01:14:21;;;;;;;;;;;;;;;20.48;51.98;100300.81;4991833;28;6796;-76
2023/06/09 01:17:08;;;;;;;;;;;;;;;20.47;52.17;100298.19;4963255;28;6812;-76
2023/06/09 01:19:43;;;;;;;;;;;;;;;20.46;51.85;100296.47;4978008;28;7140;-74
2023/06/09 01:22:28;;;;;;;;;;;;;;;20.44;52.24;100296.47;4967812;28;6847;-75
2023/06/09 01:25:34;;;;;;;;;;;;;;;20.43;51.84;100302.56;4959403;28;7011;-74
2023/06/09 01:28:13;;;;;;;;;;;;;;;20.39;52.44;100304.25;4961334;28;7145;-75
2023/06/09 01:30:41;;;;;;;;;;;;;;;20.37;52.03;100292.94;4959562;28;7004;-75
2023/06/09 01:33:17;;;;;;;;;;;;;;;20.36;52.75;100293.81;4987284;28;7157;-75
2023/06/09 01:35:45;;;;;;;;;;;;;;;20.34;52.49;100298.16;4988361;28;6799;-75
2023/06/09 01:38:12;;;;;;;;;;;;;;;20.31;52.03;100297.25;4982110;28;7002;-75
2023/06/09 01:40:38;;;;;;;;;;;;;;;20.27;52.45;100296.34;4959745;28;7337;-75
2023/06/09 01:43:06;;;;;;;;;;;;;;;20.25;52.38;100305.88;4961653;28;6871;-72
2023/06/09 01:45:32;;;;;;;;;;;;;;;20.17;52.29;100294.56;4941335;28;7198;-75
2023/06/09 01:48:03;;;;;;;;;;;;;;;20.08;52.16;100288.44;4987364;28;6787;-73
2023/06/09 01:50:43;;;;;;;;;;;;;;;20.00;52.34;100292.72;4993248;28;6800;-72
2023/06/09 01:53:16;;;;;;;;;;;;;;;19.93;52.64;100290.91;4994948;28;6788;-73
2023/06/09 01:56:00;;;;;;;;;;;;;;;19.83;52.60;100293.44;4991068;28;6965;-73
2023/06/09 01:58:33;;;;;;;;;;;;;;;19.77;52.40;100285.56;4956641;28;6836;-75
2023/06/09 02:01:01;;;;;;;;;;;;;;;19.72;52.70;100292.47;4977705;28;6971;-73
2023/06/09 02:03:31;;;;;;;;;;;;;;;19.65;52.96;100293.28;4982517;28;7301;-72
2023/06/09 02:05:58;;;;;;;;;;;;;;;19.61;53.54;100294.13;4979336;28;7090;-74
2023/06/09 02:08:29;;;;;;;;;;;;;;;19.55;53.83;100298.38;4986375;28;7127;-73
2023/06/09 02:10:54;;;;;;;;;;;;;;;19.50;53.56;100304.41;4978419;28;7281;-73
2023/06/09 02:13:20;;;;;;;;;;;;;;;19.43;53.91;100296.53;4959357;28;6772;-73
2023/06/09 02:15:46;;;;;;;;;;;;;;;19.38;53.80;100292.16;4958926;28;6949;-73
2023/06/09 02:18:15;;;;;;;;;;;;;;;19.33;54.29;100291.25;4988043;28;6788;-72
2023/06/09 02:20:44;;;;;;;;;;;;;;;19.29;53.85;100288.59;4989304;28;6780;-75
2023/06/09 02:23:10;;;;;;;;;;;;;;;19.27;54.32;100295.50;4992240;28;7103;-73
2023/06/09 02:25:36;;;;;;;;;;;;;;;19.25;54.95;100299.81;4961493;28;6780;-73
2023/06/09 02:28:05;;;;;;;;;;;;;;;19.23;54.73;100298.94;4967712;28;6871;-76
2023/06/09 02:30:32;;;;;;;;;;;;;;;19.23;55.50;100293.75;4957265;28;6803;-73
2023/06/09 02:33:01;;;;;;;;;;;;;;;19.24;55.33;100300.69;4991716;28;7019;-74
2023/06/09 02:35:29;;;;;;;;;;;;;;;19.25;55.52;100301.53;4961995;28;6994;-73
2023/06/09 02:37:57;;;;;;;;;;;;;;;19.25;55.23;100307.63;4976166;28;7335;-74
2023/06/09 02:40:27;;;;;;;;;;;;;;;19.25;55.80;100306.72;4959109;28;7182;-74
2023/06/09 02:42:52;;;;;;;;;;;;;;;19.26;55.92;100303.28;4961380;28;6955;-73
2023/06/09 02:45:18;;;;;;;;;;;;;;;19.28;55.92;100299.84;4975505;28;6764;-74
2023/06/09 02:47:44;;;;;;;;;;;;;;;19.32;55.96;100308.56;4963194;28;6768;-74
2023/06/09 02:50:10;;;;;;;;;;;;;;;19.38;56.17;100303.44;4990103;28;6882;-74
2023/06/09 02:52:35;;;;;;;;;;;;;;;19.41;56.24;100310.34;4991836;28;6805;-74
2023/06/09 02:55:01;;;;;;;;;;;;;;;19.43;56.48;100304.31;4990718;28;6779;-75
2023/06/09 02:57:28;;;;;;;;;;;;;;;19.46;56.39;100306.09;4990282;28;6768;-76
2023/06/09 02:59:54;;;;;;;;;;;;;;;19.47;56.43;100313.03;4993132;28;6784;-75
2023/06/09 03:02:19;;;;;;;;;;;;;;;19.48;55.68;100309.56;4958642;28;7078;-76
2023/06/09 03:04:45;;;;;;;;;;;;;;;19.45;55.96;100308.66;4956877;28;7064;-75
2023/06/09 03:07:13;;;;;;;;;;;;;;;19.44;56.00;100310.41;4989786;28;6771;-75
2023/06/09 03:09:43;;;;;;;;;;;;;;;19.43;55.70;100308.66;4961037;28;6812;-74
2023/06/09 03:12:09;;;;;;;;;;;;;;;19.41;56.14;100310.34;4963658;28;7276;-74
2023/06/09 03:14:35;;;;;;;;;;;;;;;19.40;56.59;100319.00;4948760;28;7096;-74
2023/06/09 03:17:04;;;;;;;;;;;;;;;19.38;56.01;100315.53;4971880;28;6787;-74
2023/06/09 03:19:30;;;;;;;;;;;;;;;19.36;55.83;100318.13;4985846;28;6816;-75
2023/06/09 03:21:57;;;;;;;;;;;;;;;19.35;56.42;100321.56;4985311;28;6788;-74
2023/06/09 03:24:25;;;;;;;;;;;;;;;19.33;56.25;100320.69;4986085;28;7267;-75
2023/06/09 03:26:52;;;;;;;;;;;;;;;19.32;56.66;100320.69;4954426;28;7210;-75
2023/06/09 03:29:19;;;;;;;;;;;;;;;19.31;56.67;100321.50;4949757;28;7140;-75
2023/06/09 03:31:45;;;;;;;;;;;;;;;19.28;56.96;100312.84;4948953;28;6908;-76
2023/06/09 03:34:11;;;;;;;;;;;;;;;19.27;56.31;100321.50;4939048;28;6953;-76
2023/06/09 03:36:37;;;;;;;;;;;;;;;19.24;56.16;100321.47;4956834;28;7819;-76
2023/06/09 03:39:04;;;;;;;;;;;;;;;19.22;57.01;100318.00;4971635;28;6812;-76
2023/06/09 03:41:29;;;;;;;;;;;;;;;19.21;57.06;100317.97;4986938;28;7043;-76
2023/06/09 03:43:55;;;;;;;;;;;;;;;19.21;57.20;100316.22;4969133;28;7308;-76
2023/06/09 03:46:21;;;;;;;;;;;;;;;19.24;57.36;100315.38;4958826;28;7130;-76
2023/06/09 03:48:47;;;;;;;;;;;;;;;19.26;57.39;100324.94;4951417;28;6953;-75
2023/06/09 03:51:13;;;;;;;;;;;;;;;19.30;57.53;100323.25;4966160;28;6984;-75
2023/06/09 03:53:39;;;;;;;;;;;;;;;19.33;57.23;100330.22;4987549;28;6768;-76
2023/06/09 03:56:06;;;;;;;;;;;;;;;19.35;57.40;100320.72;4984801;28;7261;-74
2023/06/09 03:58:33;;;;;;;;;;;;;;;19.38;57.68;100318.13;4977666;28;7107;-74
2023/06/09 04:00:59;;;;;;;;;;;;;;;19.40;57.26;100311.22;4980049;28;6792;-74
2023/06/09 04:03:24;;;;;;;;;;;;;;;19.42;57.51;100312.13;4956365;28;6808;-74
2023/06/09 04:05:50;;;;;;;;;;;;;;;19.43;57.55;100303.47;4971329;28;7011;-74
2023/06/09 04:08:16;;;;;;;;;;;;;;;19.46;57.86;100305.19;4957449;28;6910;-75
2023/06/09 04:10:42;;;;;;;;;;;;;;;19.47;57.39;100309.56;4990251;28;6768;-74
2023/06/09 04:13:10;;;;;;;;;;;;;;;19.50;58.00;100307.84;4986380;28;6945;-74
2023/06/09 04:15:36;;;;;;;;;;;;;;;19.56;57.83;100307.06;4986987;28;6849;-74
2023/06/09 04:18:03;;;;;;;;;;;;;;;19.69;58.39;100308.91;4956724;28;6772;-74
2023/06/09 04:20:29;;;;;;;;;;;;;;;19.92;58.79;100316.03;4958000;28;6814;-74
2023/06/09 04:22:55;;;;;;;;;;;;;;;20.18;59.45;100315.38;4987323;28;6877;-74
2023/06/09 04:25:25;;;;;;;;;;;;;;;20.45;59.61;100312.94;4973868;28;6875;-74
2023/06/09 04:27:54;;;;;;;;;;;;;;;20.76;58.88;100320.91;4989079;28;7013;-74
2023/06/09 04:30:29;;;;;;;;;;;;;;;21.03;59.07;100315.00;4990736;28;6792;-74
2023/06/09 04:32:59;;;;;;;;;;;;;;;21.36;58.57;100317.69;4959930;28;7284;-74
2023/06/09 04:35:25;;;;;;;;;;;;;;;21.69;58.46;100309.97;4964610;28;7010;-73
2023/06/09 04:37:51;;;;;;;;;;;;;;;22.01;57.70;100311.69;4963023;28;6776;-74
2023/06/09 04:40:23;;;;;;;;;;;;;;;22.32;57.59;100312.50;4958583;28;7025;-74
2023/06/09 04:42:58;;;;;;;;;;;;;;;22.69;56.75;100318.53;4968593;28;7276;-74
2023/06/09 04:45:28;;;;;;;;;;;;;;;23.03;56.25;100313.16;4963285;28;6963;-74
2023/06/09 04:47:59;;;;;;;;;;;;;;;23.33;55.39;100313.91;4958267;28;6816;-74
2023/06/09 04:50:30;;;;;;;;;;;;;;;23.62;54.54;100315.44;4990830;28;7254;-74
2023/06/09 04:53:03;;;;;;;;;;;;;;;23.86;53.86;100316.16;4992349;28;6800;-74
2023/06/09 04:55:30;;;;;;;;;;;;;;;24.09;53.61;100313.31;4940767;28;7295;-74
2023/06/09 04:57:56;;;;;;;;;;;;;;;24.30;52.30;100314.03;4993642;28;6791;-74
2023/06/09 05:00:26;;;;;;;;;;;;;;;24.52;52.25;100313.78;4990294;28;6979;-74
2023/06/09 05:02:53;;;;;;;;;;;;;;;24.73;51.61;100322.28;4975656;28;7140;-74
2023/06/09 05:05:20;;;;;;;;;;;;;;;24.91;51.34;100322.09;4952188;28;7468;-74
2023/06/09 05:07:46;;;;;;;;;;;;;;;25.09;50.73;100320.97;4962667;28;7241;-74
2023/06/09 05:10:12;;;;;;;;;;;;;;;25.28;50.56;100320.69;4962203;28;6856;-74
2023/06/09 05:12:39;;;;;;;;;;;;;;;25.47;50.06;100321.31;4958614;28;6826;-74
2023/06/09 05:15:06;;;;;;;;;;;;;;;25.61;49.37;100325.50;4986637;28;6836;-74
2023/06/09 05:17:33;;;;;;;;;;;;;;;25.72;49.20;100325.34;4964226;28;6792;-74
2023/06/09 05:20:00;;;;;;;;;;;;;;;25.81;48.83;100325.19;4952772;28;7955;-74
2023/06/09 05:22:26;;;;;;;;;;;;;;;25.90;48.30;100335.53;4985081;28;8536;-74
2023/06/09 05:24:53;;;;;;;;;;;;;;;25.97;48.09;100336.28;4976748;28;6984;-74
2023/06/09 05:27:18;;;;;;;;;;;;;;;26.03;47.38;100335.31;4963671;28;6931;-74
2023/06/09 05:29:44;;;;;;;;;;;;;;;26.05;47.08;100337.03;4977022;28;7124;-74
2023/06/09 05:32:09;;;;;;;;;;;;;;;26.09;47.33;100334.34;4954368;28;6975;-75
2023/06/09 05:34:35;;;;;;;;;;;;;;;26.15;47.50;100347.38;4974664;28;6812;-75
2023/06/09 05:37:02;;;;;;;;;;;;;;;26.26;47.39;100347.19;4960530;28;7147;-75
2023/06/09 05:39:28;;;;;;;;;;;;;;;26.36;46.85;100348.75;4974058;28;6792;-74
2023/06/09 05:41:53;;;;;;;;;;;;;;;26.46;46.92;100349.47;4988633;28;6984;-75
2023/06/09 05:44:19;;;;;;;;;;;;;;;26.61;46.39;100354.44;4984409;28;7246;-75
2023/06/09 05:46:44;;;;;;;;;;;;;;;26.72;46.05;100354.22;4994781;28;7023;-75
2023/06/09 05:49:10;;;;;;;;;;;;;;;26.84;45.98;100355.72;4964454;28;8710;-75
2023/06/09 05:51:37;;;;;;;;;;;;;;;26.92;45.43;100357.38;4966115;28;7017;-75
2023/06/09 05:54:03;;;;;;;;;;;;;;;26.98;45.09;100355.47;4966115;28;7052;-75
2023/06/09 05:56:29;;;;;;;;;;;;;;;26.99;45.19;100344.06;4958670;28;6778;-75
2023/06/09 05:59:03;;;;;;;;;;;;;;;26.95;44.37;100352.03;4992743;28;6854;-75
2023/06/09 06:01:30;;;;;;;;;;;;;;;26.82;43.76;100347.00;4989873;28;6815;-74
2023/06/09 06:03:56;;;;;;;;;;;;;;;26.61;43.78;100356.19;4987332;28;6812;-74
2023/06/09 06:06:22;;;;;;;;;;;;;;;26.41;43.91;100360.06;4962539;28;6808;-74
2023/06/09 06:08:48;;;;;;;;;;;;;;;26.20;44.00;100356.94;4961178;28;7272;-74
2023/06/09 06:11:13;;;;;;;;;;;;;;;26.01;44.01;100355.50;4995539;28;6956;-74
2023/06/09 06:13:39;;;;;;;;;;;;;;;25.83;44.28;100348.78;4994511;28;8575;-74
2023/06/09 06:16:04;;;;;;;;;;;;;;;25.67;44.15;100348.16;4969742;28;7256;-74
2023/06/09 06:18:30;;;;;;;;;;;;;;;25.51;44.46;100354.50;4988080;28;6946;-74
2023/06/09 06:20:56;;;;;;;;;;;;;;;25.37;44.66;100359.06;4959263;28;7128;-74
2023/06/09 06:23:21;;;;;;;;;;;;;;;25.25;45.22;100357.47;4966192;28;6768;-74
2023/06/09 06:25:47;;;;;;;;;;;;;;;25.18;45.14;100361.06;4956895;28;6872;-74
2023/06/09 06:28:14;;;;;;;;;;;;;;;25.12;45.00;100362.00;4961281;28;6784;-74
2023/06/09 06:30:40;;;;;;;;;;;;;;;25.08;45.41;100366.41;4957890;28;6812;-74
2023/06/09 06:33:07;;;;;;;;;;;;;;;25.07;45.62;100362.06;4978570;28;6950;-74
2023/06/09 06:35:33;;;;;;;;;;;;;;;25.05;45.28;100357.72;4955503;28;6803;-74
2023/06/09 06:37:59;;;;;;;;;;;;;;;25.02;45.72;100358.66;4981421;28;7016;-74
2023/06/09 06:40:26;;;;;;;;;;;;;;;25.03;45.86;100360.38;4962459;28;6780;-74
2023/06/09 06:42:52;;;;;;;;;;;;;;;25.04;45.65;100358.63;4978886;28;6976;-74
2023/06/09 06:45:18;;;;;;;;;;;;;;;25.04;45.55;100359.50;5009253;28;7005;-75
2023/06/09 06:47:45;;;;;;;;;;;;;;;25.09;46.01;100349.81;4955836;28;6792;-75
2023/06/09 06:50:13;;;;;;;;;;;;;;;25.16;45.47;100353.22;4988091;28;6827;-75
2023/06/09 06:52:40;;;;;;;;;;;;;;;25.25;45.72;100349.59;4993268;28;7262;-75
2023/06/09 06:55:07;;;;;;;;;;;;;;;25.36;45.65;100334.56;4962566;28;7273;-75
2023/06/09 06:57:37;;;;;;;;;;;;;;;25.60;45.78;100335.16;4962704;28;7427;-75
2023/06/09 07:00:15;;;;;;;;;;;;;;;25.92;45.16;100344.25;4970620;28;7039;-75
2023/06/09 07:02:47;;;;;;;;;;;;;;;26.32;44.76;100349.72;4937176;28;13154;-75
2023/06/09 07:05:13;;;;;;;;;;;;;;;26.71;44.60;100347.22;4958509;28;7128;-75
2023/06/09 07:07:39;;;;;;;;;;;;;;;27.13;43.69;100346.38;4988569;28;7346;-75
2023/06/09 07:10:08;;;;;;;;;;;;;;;27.57;43.53;100335.78;4951947;28;6876;-75
2023/06/09 07:12:34;;;;;;;;;;;;;;;28.01;42.60;100334.72;4961893;28;7264;-75
2023/06/09 07:15:00;;;;;;;;;;;;;;;28.44;42.22;100330.06;4961741;28;7028;-75
2023/06/09 07:17:25;;;;;;;;;;;;;;;28.87;40.69;100340.34;4975646;28;6796;-75
2023/06/09 07:19:51;;;;;;;;;;;;;;;29.27;40.16;100335.66;4956290;28;6875;-75
2023/06/09 07:22:17;;;;;;;;;;;;;;;29.62;39.61;100328.41;4949523;28;7310;-75
2023/06/09 07:24:42;;;;;;;;;;;;;;;29.92;39.13;100338.84;4962699;28;6855;-75
2023/06/09 07:27:08;;;;;;;;;;;;;;;30.25;38.24;100343.94;4988965;28;7193;-75
2023/06/09 07:29:37;;;;;;;;;;;;;;;30.55;37.74;100340.22;4976228;28;6963;-75
2023/06/09 07:32:04;;;;;;;;;;;;;;;30.83;36.85;100336.59;4986412;28;6807;-73
2023/06/09 07:34:31;;;;;;;;;;;;;;;31.01;36.51;100337.69;4961410;28;7351;-73
2023/06/09 07:36:59;;;;;;;;;;;;;;;31.13;35.90;100331.91;4966853;28;6821;-73
2023/06/09 07:39:27;;;;;;;;;;;;;;;31.26;35.58;100326.16;4964961;28;7108;-73
2023/06/09 07:41:53;;;;;;;;;;;;;;;31.36;35.03;100329.28;4992376;28;6788;-73
2023/06/09 07:44:19;;;;;;;;;;;;;;;31.52;35.15;100333.03;4963917;28;6848;-73
2023/06/09 07:46:44;;;;;;;;;;;;;;;31.70;34.38;100331.41;4960845;28;6804;-73
2023/06/09 07:49:10;;;;;;;;;;;;;;;31.84;34.27;100332.66;4949172;28;6952;-73
2023/06/09 07:51:37;;;;;;;;;;;;;;;31.96;33.78;100340.06;4987124;28;6982;-73
2023/06/09 07:54:06;;;;;;;;;;;;;;;32.11;33.88;100335.03;4986155;28;6975;-73
2023/06/09 07:56:32;;;;;;;;;;;;;;;32.28;33.78;100335.16;4978302;28;7138;-73
2023/06/09 07:58:58;;;;;;;;;;;;;;;32.49;33.23;100327.22;4984843;28;7158;-73
2023/06/09 08:01:27;;;;;;;;;;;;;;;32.67;32.47;100332.63;4980966;28;6831;-73
2023/06/09 08:03:53;;;;;;;;;;;;;;;32.83;32.57;100327.44;4975976;28;6796;-74
2023/06/09 08:06:18;;;;;;;;;;;;;;;32.99;32.37;100332.94;4988001;28;6821;-74
2023/06/09 08:08:44;;;;;;;;;;;;;;;33.20;32.21;100335.47;4987719;28;7082;-74
2023/06/09 08:11:11;;;;;;;;;;;;;;;33.45;32.07;100329.84;4959025;28;7162;-73
2023/06/09 08:13:36;;;;;;;;;;;;;;;33.68;31.56;100316.38;4957322;28;6856;-73
2023/06/09 08:16:03;;;;;;;;;;;;;;;33.87;31.33;100325.13;4973064;28;7059;-73
2023/06/09 08:18:28;;;;;;;;;;;;;;;34.07;30.68;100336.56;4989262;28;6796;-74
2023/06/09 08:20:54;;;;;;;;;;;;;;;34.19;29.89;100330.63;4988090;28;6990;-74
2023/06/09 08:23:23;;;;;;;;;;;;;;;34.32;29.56;100324.66;4955393;28;6915;-73
2023/06/09 08:25:49;;;;;;;;;;;;;;;34.48;29.52;100319.34;4974012;28;7231;-73
2023/06/09 08:28:15;;;;;;;;;;;;;;;34.63;29.35;100325.69;4959009;28;6984;-73
2023/06/09 08:30:41;;;;;;;;;;;;;;;34.80;29.02;100307.94;4960039;28;7099;-73
2023/06/09 08:33:07;;;;;;;;;;;;;;;34.92;28.76;100314.38;4972719;28;7229;-74
2023/06/09 08:35:33;;;;;;;;;;;;;;;35.01;28.68;100309.38;4989336;28;6914;-74
2023/06/09 08:38:00;;;;;;;;;;;;;;;35.14;28.41;100314.03;4955969;28;6772;-74
2023/06/09 08:40:25;;;;;;;;;;;;;;;35.33;28.20;100310.31;4977912;28;7027;-74
2023/06/09 08:42:55;;;;;;;;;;;;;;;35.54;28.38;100303.75;4960000;28;6778;-74
2023/06/09 08:45:22;;;;;;;;;;;;;;;35.75;27.71;100299.91;4988911;28;6880;-74
2023/06/09 08:47:51;;;;;;;;;;;;;;;35.95;27.63;100304.06;4960057;28;7010;-74
2023/06/09 08:50:21;;;;;;;;;;;;;;;36.14;27.36;100310.00;4975512;28;7405;-74
2023/06/09 08:52:48;;;;;;;;;;;;;;;36.38;27.61;100296.09;4982893;28;7338;-74
2023/06/09 08:55:14;;;;;;;;;;;;;;;36.59;26.90;100298.38;4959939;28;6851;-74
2023/06/09 08:57:42;;;;;;;;;;;;;;;36.71;26.67;100299.41;4954558;28;6795;-74
2023/06/09 09:00:11;;;;;;;;;;;;;;;36.79;25.54;100291.78;4975155;28;6971;-74
2023/06/09 09:02:37;;;;;;;;;;;;;;;36.88;26.16;100301.00;4956241;28;11627;-74
2023/06/09 09:05:04;;;;;;;;;;;;;;;36.97;25.49;100294.22;4962797;28;7176;-74
2023/06/09 09:07:30;;;;;;;;;;;;;;;37.07;25.29;100300.69;4956222;28;7798;-74
2023/06/09 09:09:58;;;;;;;;;;;;;;;37.21;25.73;100291.78;4990316;28;7113;-74
2023/06/09 09:12:24;;;;;;;;;;;;;;;37.42;24.85;100299.31;4993440;28;6849;-74
2023/06/09 09:14:49;;;;;;;;;;;;;;;37.52;24.71;100288.84;4992055;28;7345;-73
2023/06/09 09:17:16;;;;;;;;;;;;;;;37.51;24.63;100290.66;4992759;28;6926;-74
2023/06/09 09:19:51;;;;;;;;;;;;;;;37.54;24.87;100286.97;4963165;28;7236;-74
2023/06/09 09:22:17;;;;;;;;;;;;;;;37.64;24.60;100287.19;4988108;28;6840;-74
2023/06/09 09:24:49;;;;;;;;;;;;;;;37.82;24.79;100292.22;4960792;28;6836;-74
2023/06/09 09:27:22;;;;;;;;;;;;;;;37.99;24.46;100285.69;4995855;28;6819;-74
2023/06/09 09:29:48;;;;;;;;;;;;;;;38.06;24.47;100287.88;4996361;28;7299;-74
2023/06/09 09:32:17;;;;;;;;;;;;;;;38.16;24.49;100292.59;4980884;28;7268;-74
2023/06/09 09:34:46;;;;;;;;;;;;;;;38.27;24.33;100291.81;4989676;28;6804;-74
2023/06/09 09:37:16;;;;;;;;;;;;;;;38.31;23.60;100279.94;4962674;28;6816;-74
2023/06/09 09:39:53;;;;;;;;;;;;;;;38.31;23.70;100280.78;4956144;28;7931;-74
2023/06/09 09:42:21;;;;;;;;;;;;;;;38.35;23.65;100292.13;4988309;28;6971;-74
2023/06/09 09:44:51;;;;;;;;;;;;;;;38.41;23.79;100282.81;4991918;28;6864;-74
2023/06/09 09:47:18;;;;;;;;;;;;;;;38.54;23.82;100285.47;4994174;28;7339;-74
2023/06/09 09:49:53;;;;;;;;;;;;;;;38.76;23.48;100280.25;4994241;28;6988;-74
2023/06/09 09:52:27;;;;;;;;;;;;;;;39.02;23.28;100272.16;4941512;28;7086;-74
2023/06/09 09:54:55;;;;;;;;;;;;;;;39.15;23.05;100279.28;4979900;28;6992;-74
2023/06/09 09:57:23;;;;;;;;;;;;;;;39.19;23.10;100285.25;4957069;28;6976;-74
2023/06/09 09:59:51;;;;;;;;;;;;;;;39.30;23.02;100279.94;4960680;28;6816;-74
2023/06/09 10:02:26;;;;;;;;;;;;;;;39.45;22.80;100283.31;4943887;28;6814;-73
2023/06/09 10:04:56;;;;;;;;;;;;;;;39.37;22.66;100273.16;4960308;28;6808;-74
2023/06/09 10:07:26;;;;;;;;;;;;;;;39.35;22.84;100275.09;4989558;28;7277;-74
2023/06/09 10:09:53;;;;;;;;;;;;;;;39.38;22.74;100272.16;4960909;28;7066;-74
2023/06/09 10:12:20;;;;;;;;;;;;;;;39.31;22.66;100262.91;4960782;28;6792;-74
2023/06/09 10:14:50;;;;;;;;;;;;;;;39.31;22.53;100274.47;4959213;28;6840;-74
2023/06/09 10:17:21;;;;;;;;;;;;;;;39.38;22.40;100271.34;4943248;28;8126;-73
2023/06/09 10:19:52;;;;;;;;;;;;;;;39.45;22.59;100275.25;4960293;28;6991;-73
2023/06/09 10:22:22;;;;;;;;;;;;;;;39.49;22.39;100274.06;4964769;28;7059;-73
2023/06/09 10:24:47;;;;;;;;;;;;;;;39.46;21.94;100274.31;4988707;28;6816;-73
2023/06/09 10:27:14;;;;;;;;;;;;;;;39.31;22.48;100273.63;4986142;28;6788;-73
2023/06/09 10:29:40;;;;;;;;;;;;;;;39.35;22.63;100274.22;4987022;28;6788;-74
2023/06/09 10:32:11;;;;;;;;;;;;;;;39.58;22.83;100259.97;4984965;28;6800;-74
2023/06/09 10:34:41;;;;;;;;;;;;;;;39.87;22.35;100264.03;5183239;23;7100;-75
2023/06/09 10:37:06;;;;;;;;;;;;;;;39.92;22.25;100263.69;4925639;28;6808;-74
2023/06/09 10:40:16;;;;;;;;;;;;;;;39.95;22.02;100266.97;4946869;28;7246;-72
2023/06/09 10:43:19;;;;;;;;;;;;;;;39.93;21.77;100262.69;4947709;28;6972;-72
2023/06/09 10:45:56;;;;;;;;;;;;;;;39.79;21.91;100263.75;4954714;28;6832;-72
2023/06/09 10:48:50;;;;;;;;;;;;;;;39.88;22.00;100264.91;4936276;28;7028;-73
2023/06/09 10:51:24;;;;;;;;;;;;;;;39.90;21.63;100261.13;4952944;28;7277;-72
2023/06/09 10:54:15;;;;;;;;;;;;;;;39.96;21.79;100252.59;4938501;28;6885;-72
2023/06/09 10:56:42;;;;;;;;;;;;;;;40.08;21.80;100244.53;4954039;28;7129;-72
2023/06/09 10:59:25;;;;;;;;;;;;;;;40.21;21.60;100253.31;4932943;28;6868;-72
2023/06/09 11:02:03;;;;;;;;;;;;;;;40.28;21.39;100251.00;4950553;28;6848;-72
2023/06/09 11:04:46;;;;;;;;;;;;;;;40.22;21.28;100259.53;4953508;28;6824;-72
2023/06/09 11:07:22;;;;;;;;;;;;;;;40.12;21.18;100259.44;4952861;28;6866;-71
2023/06/09 11:09:49;;;;;;;;;;;;;;;40.16;21.13;100250.13;4938163;28;7049;-72
2023/06/09 11:12:42;;;;;;;;;;;;;;;40.30;20.87;100254.41;4951967;28;7148;-71
2023/06/09 11:15:12;;;;;;;;;;;;;;;40.44;20.98;100250.63;4936669;28;7004;-71
2023/06/09 11:17:49;;;;;;;;;;;;;;;40.60;21.17;100252.06;4931957;28;7021;-71
2023/06/09 11:20:18;;;;;;;;;;;;;;;40.75;20.83;100258.00;4937589;28;7067;-71
2023/06/09 11:22:44;;;;;;;;;;;;;;;40.80;20.64;100240.56;4937816;28;7012;-71
2023/06/09 11:25:19;;;;;;;;;;;;;;;40.75;20.66;100242.72;4955450;28;6792;-71
2023/06/09 11:27:54;;;;;;;;;;;;;;;40.78;20.49;100237.16;4952049;28;8423;-71
2023/06/09 11:30:25;;;;;;;;;;;;;;;40.79;20.33;100238.88;4952535;28;7209;-71
2023/06/09 11:33:14;;;;;;;;;;;;;;;40.75;20.05;100239.22;4956066;28;6868;-71
2023/06/09 11:35:40;;;;;;;;;;;;;;;40.71;20.01;100238.59;4949508;28;7075;-72
2023/06/09 11:38:18;;;;;;;;;;;;;;;40.67;20.07;100235.31;4937226;28;6804;-71
2023/06/09 11:40:52;;;;;;;;;;;;;;;40.81;20.57;100234.22;4952737;28;7197;-72
2023/06/09 11:43:19;;;;;;;;;;;;;;;40.95;19.88;100224.13;4932814;28;7070;-72
2023/06/09 11:45:46;;;;;;;;;;;;;;;41.02;19.95;100224.50;4938849;28;6979;-71
2023/06/09 11:48:12;;;;;;;;;;;;;;;41.14;19.81;100226.13;4954355;28;6812;-71
2023/06/09 11:50:42;;;;;;;;;;;;;;;41.15;19.91;100217.09;4952798;28;8664;-72
2023/06/09 11:53:16;;;;;;;;;;;;;;;41.23;20.11;100221.84;4951876;28;6808;-72
2023/06/09 11:55:43;;;;;;;;;;;;;;;41.46;19.96;100217.16;4938322;28;6804;-71
2023/06/09 11:58:12;;;;;;;;;;;;;;;41.57;19.67;100218.94;4950817;28;7414;-71
2023/06/09 12:00:43;;;;;;;;;;;;;;;41.44;19.57;100216.47;4956095;28;6830;-71
2023/06/09 12:03:10;;;;;;;;;;;;;;;41.26;19.71;100213.53;4953217;28;6971;-71
2023/06/09 12:05:37;;;;;;;;;;;;;;;41.14;19.61;100225.25;4933628;28;6842;-71
2023/06/09 12:08:02;;;;;;;;;;;;;;;41.05;19.50;100214.34;4948384;28;7443;-71
2023/06/09 12:10:29;;;;;;;;;;;;;;;41.04;19.75;100222.53;4935439;28;7122;-71
2023/06/09 12:12:59;;;;;;;;;;;;;;;41.01;19.58;100215.56;4936919;28;6979;-71
2023/06/09 12:15:27;;;;;;;;;;;;;;;40.98;19.64;100209.59;4936118;28;6898;-71
2023/06/09 12:17:59;;;;;;;;;;;;;;;41.02;19.50;100216.44;4951275;28;6780;-71
2023/06/09 12:20:30;;;;;;;;;;;;;;;41.13;19.54;100208.31;4953795;28;6847;-71
2023/06/09 12:23:03;;;;;;;;;;;;;;;41.33;19.72;100201.25;4950570;28;6859;-71
2023/06/09 12:25:57;;;;;;;;;;;;;;;41.57;19.25;100200.13;4949704;28;6808;-71
2023/06/09 12:28:29;;;;;;;;;;;;;;;41.59;18.97;100203.50;4948805;28;6828;-71
2023/06/09 12:30:57;;;;;;;;;;;;;;;41.48;19.16;100200.91;4931256;28;7027;-71
2023/06/09 12:33:29;;;;;;;;;;;;;;;41.41;19.12;100205.97;4938727;28;7555;-71
2023/06/09 12:36:07;;;;;;;;;;;;;;;41.43;18.90;100203.13;4950808;28;6812;-73
2023/06/09 12:38:39;;;;;;;;;;;;;;;41.40;18.76;100198.03;4933554;28;6804;-71
2023/06/09 12:41:17;;;;;;;;;;;;;;;41.36;19.26;100192.94;4952711;28;7860;-71
2023/06/09 12:43:55;;;;;;;;;;;;;;;41.51;19.26;100196.13;4947369;28;7945;-71
2023/06/09 12:46:38;;;;;;;;;;;;;;;41.80;18.62;100199.97;4931393;28;6885;-72
2023/06/09 12:49:09;;;;;;;;;;;;;;;41.93;18.39;100199.72;4944987;28;6868;-71
2023/06/09 12:51:40;;;;;;;;;;;;;;;41.94;18.42;100193.34;4932916;28;6784;-71
2023/06/09 12:54:07;;;;;;;;;;;;;;;41.95;18.17;100191.53;4934489;28;7281;-72
2023/06/09 12:56:33;;;;;;;;;;;;;;;41.98;18.22;100183.16;4954747;28;7319;-73